Time;durP1;ratioP1;P1;durP2;ratioP2;P2;SDS_P1;SDS_P2;PMS_P1;PMS_P2;Temp;Humidity;BMP_temperature;BMP_pressure;BME280_temperature;BME280_humidity;BME280_pressure;Samples;Min_cycle;Max_cycle;Signal;HPM_P1;HPM_P2
2022/03/13 00:01:47;;;;;;;3.00;2.80;;;18.70;35.30;;;;;;5070192;28;20817;-78
2022/03/13 00:04:13;;;;;;;2.30;2.20;;;18.70;35.40;;;;;;5070603;28;20442;-78
2022/03/13 00:06:39;;;;;;;3.20;3.00;;;18.70;35.30;;;;;;5053793;28;20213;-78
2022/03/13 00:09:12;;;;;;;3.03;2.80;;;18.70;35.30;;;;;;5068319;28;20501;-78
2022/03/13 00:11:38;;;;;;;2.80;2.60;;;18.70;35.30;;;;;;5072427;28;20242;-78
2022/03/13 00:14:05;;;;;;;2.40;2.30;;;18.70;35.40;;;;;;5060410;28;20518;-78
2022/03/13 00:16:31;;;;;;;3.20;2.50;;;18.70;35.40;;;;;;5071682;28;20484;-78
2022/03/13 00:18:59;;;;;;;3.00;2.80;;;18.70;35.40;;;;;;5069926;28;20864;-78
2022/03/13 00:21:25;;;;;;;2.87;2.70;;;18.80;35.40;;;;;;5055114;28;20222;-78
2022/03/13 00:23:51;;;;;;;2.90;2.53;;;18.70;35.30;;;;;;5053444;28;20570;-78
2022/03/13 00:26:18;;;;;;;2.90;2.70;;;18.70;35.50;;;;;;5047139;28;20221;-78
2022/03/13 00:28:45;;;;;;;2.73;2.53;;;18.80;35.40;;;;;;5078101;28;20515;-77
2022/03/13 00:31:11;;;;;;;2.77;2.50;;;18.70;35.40;;;;;;5070850;28;20539;-79
2022/03/13 00:33:37;;;;;;;2.50;2.30;;;18.70;35.40;;;;;;5068545;28;20454;-78
2022/03/13 00:36:04;;;;;;;2.93;2.73;;;18.70;35.40;;;;;;5070377;28;20450;-78
2022/03/13 00:38:30;;;;;;;3.07;2.87;;;18.70;35.40;;;;;;5053351;28;20454;-78
2022/03/13 00:40:58;;;;;;;3.03;2.90;;;18.70;35.50;;;;;;5053758;28;20450;-78
2022/03/13 00:43:25;;;;;;;3.00;2.80;;;18.70;35.50;;;;;;5052189;28;20847;-78
2022/03/13 00:45:52;;;;;;;3.23;3.00;;;18.70;35.40;;;;;;5070431;28;21204;-78
2022/03/13 00:48:18;;;;;;;2.80;2.60;;;18.70;35.50;;;;;;5071146;28;20457;-78
2022/03/13 00:50:45;;;;;;;3.23;3.03;;;18.70;35.50;;;;;;5069834;28;20974;-78
2022/03/13 00:53:11;;;;;;;2.53;2.40;;;18.70;35.50;;;;;;5051570;28;20439;-78
2022/03/13 00:55:36;;;;;;;2.90;2.80;;;18.70;35.50;;;;;;5052094;28;20474;-78
2022/03/13 00:58:03;;;;;;;2.53;2.43;;;18.70;35.60;;;;;;5052110;28;20455;-78
2022/03/13 01:00:29;;;;;;;2.97;2.77;;;18.70;35.60;;;;;;5070200;28;20638;-78
2022/03/13 01:02:55;;;;;;;2.40;2.30;;;18.70;35.60;;;;;;5053637;28;20889;-78
2022/03/13 01:05:25;;;;;;;2.83;2.63;;;18.70;35.60;;;;;;5050492;28;20500;-77
2022/03/13 01:07:52;;;;;;;2.90;2.70;;;18.70;35.50;;;;;;5070002;28;20340;-78
2022/03/13 01:10:18;;;;;;;2.70;2.50;;;18.70;35.50;;;;;;5069940;28;20970;-78
2022/03/13 01:12:44;;;;;;;2.80;2.60;;;18.70;35.50;;;;;;5069794;28;20436;-78
2022/03/13 01:15:10;;;;;;;2.50;2.30;;;18.70;35.50;;;;;;5069944;28;20221;-79
2022/03/13 01:17:36;;;;;;;2.63;2.43;;;18.70;35.60;;;;;;5070026;28;21075;-78
2022/03/13 01:20:04;;;;;;;2.70;2.50;;;18.70;35.60;;;;;;5070206;28;20300;-78
2022/03/13 01:22:30;;;;;;;2.50;2.30;;;18.70;35.70;;;;;;5049626;28;20459;-77
2022/03/13 01:24:56;;;;;;;3.17;2.97;;;18.70;35.60;;;;;;5069987;28;20759;-78
2022/03/13 01:27:22;;;;;;;2.50;2.40;;;18.70;35.50;;;;;;5084279;28;20237;-78
2022/03/13 01:29:48;;;;;;;2.50;2.40;;;18.70;35.50;;;;;;5051744;28;20224;-78
2022/03/13 01:32:14;;;;;;;2.77;2.57;;;18.70;35.60;;;;;;5069698;28;20245;-78
2022/03/13 01:34:49;;;;;;;3.10;2.90;;;18.70;35.60;;;;;;5070089;28;20816;-78
2022/03/13 01:37:26;;;;;;;3.00;2.80;;;18.60;35.50;;;;;;5067435;28;20473;-78
2022/03/13 01:39:52;;;;;;;2.70;2.60;;;18.70;35.60;;;;;;5067073;28;20448;-78
2022/03/13 01:42:18;;;;;;;3.00;2.80;;;18.60;35.50;;;;;;5068845;28;20450;-78
2022/03/13 01:44:44;;;;;;;2.20;2.10;;;18.70;35.60;;;;;;5069107;28;20611;-78
2022/03/13 01:47:10;;;;;;;2.97;2.80;;;18.70;35.60;;;;;;5068527;28;20224;-78
2022/03/13 01:49:35;;;;;;;3.00;2.80;;;18.60;35.50;;;;;;5069044;28;20229;-78
2022/03/13 01:52:01;;;;;;;2.80;2.60;;;18.60;35.50;;;;;;5069610;28;20226;-78
2022/03/13 01:54:30;;;;;;;3.30;3.10;;;18.60;35.50;;;;;;5069058;28;20244;-78
2022/03/13 01:56:56;;;;;;;2.73;2.63;;;18.60;35.50;;;;;;5071014;28;21005;-78
2022/03/13 01:59:21;;;;;;;2.70;2.50;;;18.70;35.60;;;;;;5072633;28;22164;-78
2022/03/13 02:01:47;;;;;;;2.80;2.63;;;18.60;35.50;;;;;;5067902;28;20218;-78
2022/03/13 02:04:13;;;;;;;2.63;2.50;;;18.70;35.60;;;;;;5068367;28;20213;-78
2022/03/13 02:06:39;;;;;;;2.77;2.57;;;18.60;35.50;;;;;;5069088;28;20309;-78
2022/03/13 02:09:06;;;;;;;2.80;2.60;;;18.60;35.60;;;;;;5068968;28;20494;-78
2022/03/13 02:11:40;;;;;;;2.50;2.30;;;18.60;35.50;;;;;;5050479;28;20850;-78
2022/03/13 02:14:08;;;;;;;2.53;2.33;;;18.60;35.60;;;;;;5068633;28;20443;-78
2022/03/13 02:16:34;;;;;;;2.50;2.40;;;18.60;35.60;;;;;;5050337;28;20500;-78
2022/03/13 02:19:00;;;;;;;2.70;2.50;;;18.60;35.50;;;;;;5052551;28;20897;-78
2022/03/13 02:21:28;;;;;;;3.20;3.00;;;18.60;35.60;;;;;;5050283;28;20500;-78
2022/03/13 02:24:00;;;;;;;2.60;2.50;;;18.60;35.50;;;;;;5066425;28;20766;-78
2022/03/13 02:26:26;;;;;;;2.73;2.50;;;18.60;35.50;;;;;;5067770;28;20445;-78
2022/03/13 02:28:54;;;;;;;3.03;2.83;;;18.60;35.50;;;;;;5050327;28;20497;-78
2022/03/13 02:31:34;;;;;;;2.73;2.53;;;18.60;35.60;;;;;;5068505;28;20474;-78
2022/03/13 02:34:00;;;;;;;3.27;3.07;;;18.60;35.60;;;;;;5081690;28;20461;-79
2022/03/13 02:36:31;;;;;;;2.93;2.73;;;18.60;35.60;;;;;;5047531;28;20887;-78
2022/03/13 02:38:58;;;;;;;3.27;2.97;;;18.60;35.60;;;;;;5065422;28;20461;-78
2022/03/13 02:41:26;;;;;;;3.07;2.87;;;18.60;35.50;;;;;;5068066;28;21048;-78
2022/03/13 02:43:52;;;;;;;3.17;2.97;;;18.60;36.30;;;;;;5068281;28;20596;-78
2022/03/13 02:46:23;;;;;;;3.00;2.80;;;18.60;35.50;;;;;;5050095;28;20986;-78
2022/03/13 02:48:49;;;;;;;2.37;2.27;;;18.60;35.50;;;;;;5049585;28;20450;-78
2022/03/13 02:51:15;;;;;;;2.43;2.33;;;18.60;35.60;;;;;;5050592;28;20461;-78
2022/03/13 02:53:41;;;;;;;3.00;2.80;;;18.60;35.50;;;;;;5069625;28;20450;-78
2022/03/13 02:56:07;;;;;;;2.70;2.53;;;18.60;35.60;;;;;;5068139;28;20272;-78
2022/03/13 02:58:33;;;;;;;3.03;2.83;;;18.60;35.60;;;;;;5049814;28;20600;-78
2022/03/13 03:00:59;;;;;;;2.70;2.50;;;18.60;35.60;;;;;;5051107;28;20225;-78
2022/03/13 03:03:24;;;;;;;3.07;2.77;;;18.60;35.50;;;;;;5068195;28;20833;-78
2022/03/13 03:05:50;;;;;;;2.67;2.57;;;18.60;35.50;;;;;;5068169;28;20360;-78
2022/03/13 03:08:17;;;;;;;2.77;2.63;;;18.60;35.60;;;;;;5068116;28;20233;-78
2022/03/13 03:10:43;;;;;;;3.50;3.30;;;18.60;35.60;;;;;;5049915;28;20469;-78
2022/03/13 03:13:11;;;;;;;3.37;3.17;;;18.60;35.50;;;;;;5069152;28;20956;-78
2022/03/13 03:15:38;;;;;;;3.27;3.07;;;18.60;35.60;;;;;;5068130;28;20509;-78
2022/03/13 03:18:04;;;;;;;3.20;3.00;;;18.60;35.50;;;;;;5068251;28;20935;-78
2022/03/13 03:20:31;;;;;;;2.77;2.67;;;18.60;35.50;;;;;;5068262;28;20822;-78
2022/03/13 03:22:57;;;;;;;2.53;2.33;;;18.60;35.50;;;;;;5068159;28;20483;-78
2022/03/13 03:25:25;;;;;;;2.63;2.50;;;18.60;35.60;;;;;;5068081;28;20547;-78
2022/03/13 03:27:51;;;;;;;2.93;2.77;;;18.60;35.50;;;;;;5050022;28;20226;-78
2022/03/13 03:30:22;;;;;;;2.70;2.50;;;18.60;35.60;;;;;;5051427;28;21025;-78
2022/03/13 03:32:48;;;;;;;2.63;2.43;;;18.60;35.60;;;;;;5049744;28;20811;-78
2022/03/13 03:35:19;;;;;;;2.50;2.40;;;18.60;35.60;;;;;;5066868;28;20447;-78
2022/03/13 03:37:45;;;;;;;2.40;2.30;;;18.60;35.60;;;;;;5069490;28;20454;-78
2022/03/13 03:40:11;;;;;;;3.17;2.53;;;18.60;35.60;;;;;;5055189;28;20421;-78
2022/03/13 03:42:37;;;;;;;3.07;2.87;;;18.60;35.60;;;;;;5072175;28;20954;-78
2022/03/13 03:45:04;;;;;;;2.50;2.40;;;18.60;35.60;;;;;;5071545;28;20596;-78
2022/03/13 03:47:30;;;;;;;2.87;2.67;;;18.60;35.60;;;;;;5071784;28;20417;-77
2022/03/13 03:49:55;;;;;;;3.00;2.80;;;18.60;35.50;;;;;;5071519;28;20856;-77
2022/03/13 03:52:21;;;;;;;2.70;2.50;;;18.60;35.60;;;;;;5071084;28;21261;-77
2022/03/13 03:54:47;;;;;;;2.53;2.43;;;18.60;35.50;;;;;;5054635;28;20228;-77
2022/03/13 03:57:12;;;;;;;2.87;2.67;;;18.60;35.60;;;;;;5053442;28;20229;-77
2022/03/13 03:59:38;;;;;;;2.80;2.60;;;18.60;35.60;;;;;;5052758;28;20265;-77
2022/03/13 04:02:04;;;;;;;2.80;2.70;;;18.60;35.60;;;;;;5053058;28;20316;-77
2022/03/13 04:04:29;;;;;;;2.60;2.40;;;18.60;35.50;;;;;;5072428;28;20267;-77
2022/03/13 04:06:55;;;;;;;3.00;2.80;;;18.60;36.30;;;;;;5054235;28;20253;-77
2022/03/13 04:09:21;;;;;;;2.73;2.53;;;18.60;35.50;;;;;;5070443;28;20276;-78
2022/03/13 04:11:47;;;;;;;3.20;3.00;;;18.60;35.50;;;;;;5071332;28;20272;-78
2022/03/13 04:14:14;;;;;;;2.50;2.30;;;18.60;35.60;;;;;;5052702;28;20235;-78
2022/03/13 04:16:41;;;;;;;3.00;2.80;;;18.60;35.50;;;;;;5070573;28;20541;-78
2022/03/13 04:19:09;;;;;;;2.63;2.43;;;18.60;35.50;;;;;;5070412;28;20519;-78
2022/03/13 04:21:34;;;;;;;2.70;2.50;;;18.60;35.50;;;;;;5056287;28;20451;-78
2022/03/13 04:24:00;;;;;;;2.73;2.57;;;18.60;35.50;;;;;;5051881;28;20467;-78
2022/03/13 04:26:26;;;;;;;3.00;2.67;;;18.60;35.60;;;;;;5069807;28;20316;-78
2022/03/13 04:28:52;;;;;;;2.73;2.63;;;18.60;35.50;;;;;;5052603;28;20233;-77
2022/03/13 04:31:18;;;;;;;2.67;2.47;;;18.60;35.50;;;;;;5070330;28;21067;-78
2022/03/13 04:33:44;;;;;;;2.83;2.67;;;18.60;35.50;;;;;;5053775;28;20232;-78
2022/03/13 04:36:14;;;;;;;2.60;2.50;;;18.60;35.50;;;;;;5052382;28;20938;-78
2022/03/13 04:38:42;;;;;;;2.60;2.40;;;18.60;35.50;;;;;;5069425;28;20732;-78
2022/03/13 04:41:09;;;;;;;2.83;2.67;;;18.60;35.50;;;;;;5052985;28;20458;-78
2022/03/13 04:43:35;;;;;;;2.77;2.67;;;18.60;35.50;;;;;;5053093;28;20455;-77
2022/03/13 04:46:01;;;;;;;2.33;2.23;;;18.60;35.50;;;;;;5071192;28;20808;-77
2022/03/13 04:48:27;;;;;;;2.83;2.63;;;18.60;35.50;;;;;;5050860;28;20226;-78
2022/03/13 04:50:53;;;;;;;2.90;2.70;;;18.60;35.50;;;;;;5051943;28;20421;-77
2022/03/13 04:53:18;;;;;;;2.50;2.27;;;18.60;35.50;;;;;;5083384;28;20294;-77
2022/03/13 04:55:44;;;;;;;3.13;2.73;;;18.60;35.50;;;;;;5084415;28;20291;-78
2022/03/13 04:58:10;;;;;;;2.50;2.40;;;18.60;35.50;;;;;;5070893;28;20309;-78
2022/03/13 05:00:38;;;;;;;2.47;2.37;;;18.60;35.40;;;;;;5069710;28;20283;-77
2022/03/13 05:03:05;;;;;;;2.60;2.50;;;18.60;35.40;;;;;;5052342;28;20315;-77
2022/03/13 05:05:34;;;;;;;2.23;2.13;;;18.60;35.50;;;;;;5070882;28;20443;-78
2022/03/13 05:08:00;;;;;;;3.07;2.87;;;18.60;35.50;;;;;;5067165;28;20942;-77
2022/03/13 05:10:36;;;;;;;2.50;2.40;;;18.60;35.50;;;;;;5068469;28;20421;-78
2022/03/13 05:13:06;;;;;;;2.40;2.30;;;18.60;35.40;;;;;;5069666;28;20470;-78
2022/03/13 05:15:32;;;;;;;2.87;2.67;;;18.60;35.40;;;;;;5048114;28;20418;-78
2022/03/13 05:17:58;;;;;;;2.63;2.50;;;18.60;35.40;;;;;;5069029;28;20459;-80
2022/03/13 05:20:24;;;;;;;2.87;2.70;;;18.60;35.40;;;;;;5051549;28;20808;-77
2022/03/13 05:22:49;;;;;;;2.50;2.40;;;18.60;35.30;;;;;;5069401;28;20221;-77
2022/03/13 05:25:15;;;;;;;2.57;2.37;;;18.60;35.30;;;;;;5069429;28;20295;-77
2022/03/13 05:27:41;;;;;;;2.03;1.93;;;18.60;35.30;;;;;;5069338;28;20283;-77
2022/03/13 05:30:08;;;;;;;2.70;2.50;;;18.60;35.30;;;;;;5069596;28;20222;-78
2022/03/13 05:32:35;;;;;;;2.37;2.27;;;18.60;35.30;;;;;;5051271;28;20221;-78
2022/03/13 05:35:01;;;;;;;2.80;2.60;;;18.60;35.20;;;;;;5052669;28;20453;-78
2022/03/13 05:37:27;;;;;;;2.37;2.17;;;18.60;35.20;;;;;;5069709;28;20978;-78
2022/03/13 05:39:52;;;;;;;2.27;2.17;;;18.60;35.20;;;;;;5068970;28;20442;-78
2022/03/13 05:42:24;;;;;;;2.60;2.50;;;18.60;35.20;;;;;;5069040;28;20218;-78
2022/03/13 05:44:53;;;;;;;2.60;2.40;;;18.60;35.20;;;;;;5051003;28;20669;-78
2022/03/13 05:47:18;;;;;;;2.47;2.37;;;18.60;35.20;;;;;;5051190;28;20476;-78
2022/03/13 05:49:45;;;;;;;2.30;2.20;;;18.60;35.10;;;;;;5069475;28;20533;-77
2022/03/13 05:52:14;;;;;;;2.60;2.40;;;18.60;35.10;;;;;;5069143;28;20214;-78
2022/03/13 05:54:43;;;;;;;2.40;2.30;;;18.70;35.20;;;;;;5051443;28;20455;-78
2022/03/13 05:57:10;;;;;;;2.20;2.10;;;18.60;35.10;;;;;;5050929;28;20443;-78
2022/03/13 05:59:37;;;;;;;2.00;1.90;;;18.60;35.10;;;;;;5066816;28;20457;-78
2022/03/13 06:02:05;;;;;;;2.13;2.03;;;18.70;35.10;;;;;;5068470;28;20817;-78
2022/03/13 06:04:39;;;;;;;2.40;2.30;;;18.60;35.10;;;;;;5047948;28;20492;-78
2022/03/13 06:07:05;;;;;;;2.40;2.27;;;18.60;35.00;;;;;;5066875;28;20447;-76
2022/03/13 06:09:31;;;;;;;2.30;2.20;;;18.70;35.10;;;;;;5043089;28;21014;-77
2022/03/13 06:11:57;;;;;;;2.83;2.63;;;18.70;35.10;;;;;;5064552;28;20395;-81
2022/03/13 06:14:23;;;;;;;2.33;2.13;;;18.70;35.00;;;;;;5069263;28;20798;-78
2022/03/13 06:16:49;;;;;;;2.30;2.20;;;18.70;35.10;;;;;;5069027;28;20454;-78
2022/03/13 06:19:15;;;;;;;2.47;2.27;;;18.70;35.00;;;;;;5050862;28;20230;-77
2022/03/13 06:21:42;;;;;;;2.63;2.43;;;18.70;35.00;;;;;;5051125;28;20221;-77
2022/03/13 06:24:08;;;;;;;2.30;2.20;;;18.70;35.00;;;;;;5061432;28;20700;-77
2022/03/13 06:26:34;;;;;;;2.30;2.20;;;18.70;35.00;;;;;;5077368;28;20508;-77
2022/03/13 06:29:00;;;;;;;2.27;2.13;;;18.70;35.00;;;;;;5070503;28;20457;-77
2022/03/13 06:31:26;;;;;;;3.20;3.00;;;18.70;35.00;;;;;;5084062;28;20414;-77
2022/03/13 06:33:52;;;;;;;2.47;2.27;;;18.70;35.00;;;;;;5050884;28;20236;-78
2022/03/13 06:36:17;;;;;;;2.10;2.00;;;18.70;34.90;;;;;;5051085;28;20438;-78
2022/03/13 06:38:43;;;;;;;2.43;2.27;;;18.70;34.90;;;;;;5067969;28;20259;-78
2022/03/13 06:41:09;;;;;;;2.57;2.37;;;18.70;34.90;;;;;;5068592;28;20221;-77
2022/03/13 06:43:34;;;;;;;2.27;2.10;;;18.70;34.90;;;;;;5065908;28;20290;-77
2022/03/13 06:46:01;;;;;;;2.40;2.30;;;18.70;34.90;;;;;;5068836;28;20312;-77
2022/03/13 06:48:27;;;;;;;2.30;2.20;;;18.70;34.90;;;;;;5051578;28;20225;-77
2022/03/13 06:50:53;;;;;;;2.33;2.23;;;18.70;34.90;;;;;;5068613;28;20451;-77
2022/03/13 06:53:19;;;;;;;2.43;2.23;;;18.70;34.90;;;;;;5068854;28;20301;-77
2022/03/13 06:55:47;;;;;;;2.20;2.00;;;18.70;34.80;;;;;;5050452;28;20542;-76
2022/03/13 06:58:12;;;;;;;2.13;2.03;;;18.70;34.80;;;;;;5050411;28;20226;-77
2022/03/13 07:00:38;;;;;;;2.10;2.00;;;18.70;34.90;;;;;;5068505;28;20417;-77
2022/03/13 07:03:04;;;;;;;2.40;2.30;;;18.70;34.80;;;;;;5069138;28;20309;-77
2022/03/13 07:05:30;;;;;;;2.60;2.40;;;18.70;34.80;;;;;;5071263;28;20230;-77
2022/03/13 07:07:57;;;;;;;2.30;2.20;;;18.70;34.80;;;;;;5068507;28;20233;-77
2022/03/13 07:10:26;;;;;;;2.40;2.20;;;18.70;34.80;;;;;;5068154;28;20451;-77
2022/03/13 07:12:57;;;;;;;2.57;2.37;;;18.70;34.80;;;;;;5052793;28;20760;-77
2022/03/13 07:15:23;;;;;;;2.77;2.67;;;18.70;34.80;;;;;;5053874;28;20466;-77
2022/03/13 07:17:49;;;;;;;2.60;2.40;;;18.70;34.80;;;;;;5053064;28;20481;-77
2022/03/13 07:20:15;;;;;;;2.17;2.07;;;18.70;34.80;;;;;;5054080;28;20918;-77
2022/03/13 07:22:42;;;;;;;2.00;1.90;;;18.70;34.70;;;;;;5085878;28;20226;-77
2022/03/13 07:25:09;;;;;;;2.63;2.43;;;18.70;34.80;;;;;;5071541;28;20607;-77
2022/03/13 07:27:35;;;;;;;2.77;2.47;;;18.70;34.70;;;;;;5053726;28;20428;-77
2022/03/13 07:30:00;;;;;;;2.80;2.60;;;18.70;34.70;;;;;;5073625;28;21031;-76
2022/03/13 07:32:26;;;;;;;2.17;1.97;;;18.70;34.60;;;;;;5072088;28;20450;-76
2022/03/13 07:34:52;;;;;;;2.50;2.30;;;18.70;34.60;;;;;;5071970;28;20233;-76
2022/03/13 07:37:18;;;;;;;3.20;2.80;;;18.70;34.60;;;;;;5052888;28;20227;-76
2022/03/13 07:39:47;;;;;;;2.07;1.97;;;18.70;34.60;;;;;;5054123;28;20252;-75
2022/03/13 07:42:13;;;;;;;2.73;2.53;;;18.70;34.60;;;;;;5052643;28;20981;-75
2022/03/13 07:44:39;;;;;;;2.77;2.57;;;18.80;34.60;;;;;;5053501;28;20453;-75
2022/03/13 07:47:05;;;;;;;2.27;2.07;;;18.80;34.60;;;;;;5069946;28;20490;-75
2022/03/13 07:49:30;;;;;;;3.30;2.47;;;18.70;34.50;;;;;;5071993;28;20232;-75
2022/03/13 07:51:56;;;;;;;2.50;2.30;;;18.80;34.50;;;;;;5072455;28;20256;-76
2022/03/13 07:54:22;;;;;;;2.40;2.20;;;18.80;34.50;;;;;;5054379;28;20226;-76
2022/03/13 07:56:47;;;;;;;2.43;2.30;;;18.70;34.50;;;;;;5055999;28;20333;-75
2022/03/13 07:59:13;;;;;;;2.27;2.17;;;18.70;34.40;;;;;;5053943;28;20238;-75
2022/03/13 08:01:39;;;;;;;2.20;2.00;;;18.80;34.50;;;;;;5085652;28;20217;-75
2022/03/13 08:04:05;;;;;;;5.60;2.33;;;18.80;34.50;;;;;;5073526;28;20224;-75
2022/03/13 08:06:35;;;;;;;6.53;2.50;;;18.80;34.50;;;;;;5072010;28;20221;-75
2022/03/13 08:09:03;;;;;;;6.23;2.70;;;18.80;34.50;;;;;;5048516;28;20474;-75
2022/03/13 08:11:28;;;;;;;3.80;2.23;;;18.80;34.50;;;;;;5071596;28;20447;-76
2022/03/13 08:13:54;;;;;;;3.60;2.30;;;18.80;34.50;;;;;;5071187;28;20445;-75
2022/03/13 08:16:20;;;;;;;3.43;2.77;;;18.80;34.50;;;;;;5052234;28;20588;-75
2022/03/13 08:18:46;;;;;;;6.17;2.70;;;18.80;34.50;;;;;;5073093;28;20595;-75
2022/03/13 08:21:13;;;;;;;2.60;2.47;;;18.80;34.50;;;;;;5071135;28;20243;-75
2022/03/13 08:23:38;;;;;;;2.40;2.20;;;18.80;34.50;;;;;;5068210;28;20218;-75
2022/03/13 08:26:04;;;;;;;2.50;2.33;;;18.80;34.50;;;;;;5071240;28;20982;-75
2022/03/13 08:28:30;;;;;;;2.20;2.10;;;18.80;34.50;;;;;;5071154;28;20305;-76
2022/03/13 08:30:55;;;;;;;2.60;2.40;;;18.80;34.50;;;;;;5070931;28;20313;-77
2022/03/13 08:33:21;;;;;;;3.47;2.70;;;18.80;34.50;;;;;;5070485;28;20946;-75
2022/03/13 08:35:50;;;;;;;2.23;2.13;;;18.80;34.50;;;;;;5066828;28;20309;-76
2022/03/13 08:38:16;;;;;;;2.10;2.00;;;18.80;34.50;;;;;;5069866;28;20319;-76
2022/03/13 08:40:42;;;;;;;2.27;2.07;;;18.80;34.50;;;;;;5071640;28;20827;-75
2022/03/13 08:43:07;;;;;;;2.90;2.70;;;18.80;34.50;;;;;;5070692;28;20454;-76
2022/03/13 08:45:33;;;;;;;2.40;2.20;;;18.80;34.40;;;;;;5070576;28;20220;-76
2022/03/13 08:47:59;;;;;;;2.70;2.50;;;18.80;35.30;;;;;;5053723;28;20588;-76
2022/03/13 08:50:24;;;;;;;2.20;2.10;;;18.80;34.40;;;;;;5052910;28;20224;-75
2022/03/13 08:52:50;;;;;;;2.80;2.60;;;18.80;34.50;;;;;;5071158;28;20251;-75
2022/03/13 08:55:18;;;;;;;2.43;2.23;;;18.80;34.50;;;;;;5054789;28;20233;-75
2022/03/13 08:57:45;;;;;;;2.43;2.20;;;18.80;34.40;;;;;;5052290;28;20486;-76
2022/03/13 09:00:13;;;;;;;2.57;2.37;;;18.80;34.50;;;;;;5070213;28;20439;-76
2022/03/13 09:02:39;;;;;;;2.53;2.23;;;18.80;34.40;;;;;;5072375;28;20446;-76
2022/03/13 09:05:05;;;;;;;2.60;2.40;;;18.80;34.40;;;;;;5070394;28;20435;-75
2022/03/13 09:07:31;;;;;;;2.47;2.00;;;18.80;34.40;;;;;;5070644;28;20704;-76
2022/03/13 09:09:57;;;;;;;2.50;2.30;;;18.80;34.40;;;;;;5069921;28;20450;-77
2022/03/13 09:12:22;;;;;;;2.33;2.13;;;18.80;34.40;;;;;;5069696;28;20220;-80
2022/03/13 09:14:48;;;;;;;2.77;2.53;;;18.80;34.40;;;;;;5051350;28;20809;-79
2022/03/13 09:17:15;;;;;;;2.70;2.17;;;18.80;34.40;;;;;;5057556;28;20595;-80
2022/03/13 09:19:41;;;;;;;2.43;2.23;;;18.80;34.40;;;;;;5068524;28;20272;-80
2022/03/13 09:22:08;;;;;;;2.17;2.07;;;18.80;34.40;;;;;;5060231;28;20414;-79
2022/03/13 09:24:33;;;;;;;2.57;2.47;;;18.80;34.40;;;;;;5051844;28;20214;-81
2022/03/13 09:26:59;;;;;;;2.20;2.10;;;18.80;34.40;;;;;;5069891;28;20436;-82
2022/03/13 09:29:27;;;;;;;2.77;2.47;;;18.80;34.40;;;;;;5069673;28;20580;-83
2022/03/13 09:31:53;;;;;;;2.60;2.50;;;18.80;34.40;;;;;;5069591;28;20213;-86
2022/03/13 09:34:18;;;;;;;2.27;2.17;;;18.80;34.40;;;;;;5051665;28;20802;-86
2022/03/13 09:36:44;;;;;;;4.90;2.23;;;18.80;34.50;;;;;;5051644;28;20221;-83
2022/03/13 09:39:10;;;;;;;2.37;2.20;;;18.80;34.50;;;;;;5069439;28;20294;-82
2022/03/13 09:41:38;;;;;;;2.27;2.07;;;18.80;34.50;;;;;;5051741;28;20218;-83
2022/03/13 09:44:08;;;;;;;2.03;1.93;;;18.80;34.50;;;;;;5069407;28;20653;-81
2022/03/13 09:46:38;;;;;;;2.97;2.00;;;18.80;34.50;;;;;;5070252;28;20958;-81
2022/03/13 09:49:04;;;;;;;2.63;2.00;;;18.80;34.50;;;;;;5051580;28;20447;-80
2022/03/13 09:51:30;;;;;;;2.90;2.67;;;18.80;34.50;;;;;;5069906;28;20497;-84
2022/03/13 09:53:57;;;;;;;2.50;2.40;;;18.80;34.50;;;;;;5068767;28;20534;-83
2022/03/13 09:56:22;;;;;;;2.83;2.50;;;18.80;34.60;;;;;;5069537;28;20487;-81
2022/03/13 09:58:48;;;;;;;4.00;2.27;;;18.80;34.60;;;;;;5083626;28;20827;-81
2022/03/13 10:01:14;;;;;;;2.57;2.37;;;18.80;34.60;;;;;;5051281;28;20230;-81
2022/03/13 10:03:40;;;;;;;3.63;2.50;;;18.80;34.60;;;;;;5068301;28;20229;-81
2022/03/13 10:06:06;;;;;;;3.73;2.60;;;18.80;34.60;;;;;;5067338;28;20213;-78
2022/03/13 10:08:33;;;;;;;6.20;2.17;;;18.80;34.60;;;;;;5050958;28;20452;-80
2022/03/13 10:11:02;;;;;;;2.87;2.67;;;18.80;34.60;;;;;;5083596;28;20571;-83
2022/03/13 10:13:43;;;;;;;3.13;2.63;;;18.80;34.60;;;;;;5069033;28;20439;-85
2022/03/13 10:16:17;;;;;;;3.63;2.47;;;18.80;34.60;;;;;;5067090;28;20466;-84
2022/03/13 10:18:42;;;;;;;2.90;2.40;;;18.80;34.60;;;;;;5035549;28;20527;-80
2022/03/13 10:21:14;;;;;;;3.10;2.90;;;18.80;34.60;;;;;;5048897;28;20498;-81
2022/03/13 10:23:40;;;;;;;3.10;2.90;;;18.80;34.60;;;;;;5048181;28;20222;-79
2022/03/13 10:26:07;;;;;;;10.70;4.43;;;18.80;34.50;;;;;;5078214;28;20439;-79
2022/03/13 10:28:37;;;;;;;5.00;4.60;;;18.80;34.40;;;;;;5047580;28;20478;-77
2022/03/13 10:31:02;;;;;;;5.80;5.30;;;18.90;34.10;;;;;;5047084;28;20435;-78
2022/03/13 10:33:52;;;;;;;4.90;4.50;;;18.90;34.00;;;;;;5047378;28;20522;-81
2022/03/13 10:36:34;;;;;;;5.80;5.30;;;19.00;33.80;;;;;;5053539;28;20693;-80
2022/03/13 10:39:02;;;;;;;4.10;3.20;;;19.00;33.00;;;;;;5058409;28;20947;-83
2022/03/13 10:48:17;;;;;;;3.00;2.67;;;19.00;33.80;;;;;;4960650;28;20470;-64
2022/03/13 10:50:44;;;;;;;2.90;2.70;;;18.90;33.90;;;;;;4980892;28;20486;-65
2022/03/13 10:53:13;;;;;;;2.80;2.60;;;18.90;34.00;;;;;;4976017;28;20471;-65
2022/03/13 12:13:10;;;;;;;3.80;2.83;;;18.80;34.70;;;;;;4980075;28;20493;-66
2022/03/13 12:15:37;;;;;;;2.90;2.70;;;18.80;34.60;;;;;;4997702;28;21027;-66
2022/03/13 12:18:25;;;;;;;3.23;2.93;;;18.80;34.50;;;;;;5004541;28;21199;-66
2022/03/13 12:20:51;;;;;;;3.83;3.00;;;18.80;34.40;;;;;;5002239;28;20450;-67
2022/03/13 12:23:38;;;;;;;3.30;3.10;;;18.90;34.50;;;;;;5007274;28;20419;-66
2022/03/13 12:26:20;;;;;;;3.27;3.07;;;18.90;34.30;;;;;;5000726;28;20437;-66
2022/03/13 12:28:47;;;;;;;3.63;3.33;;;18.90;34.20;;;;;;5002916;28;20436;-67
2022/03/13 12:31:13;;;;;;;6.20;2.90;;;18.90;34.10;;;;;;5001689;28;20476;-66
2022/03/13 12:33:44;;;;;;;2.87;2.67;;;18.90;34.20;;;;;;5002103;28;20817;-65
2022/03/13 12:36:09;;;;;;;2.80;2.60;;;18.90;34.20;;;;;;5002238;28;20220;-65
2022/03/13 12:38:35;;;;;;;3.63;3.13;;;18.90;34.30;;;;;;5007994;28;20542;-65
2022/03/13 12:41:04;;;;;;;3.77;2.97;;;18.90;34.40;;;;;;4996722;28;20231;-66
2022/03/13 12:43:56;;;;;;;3.23;3.03;;;18.90;34.50;;;;;;5005328;28;20219;-66
2022/03/13 12:46:24;;;;;;;3.50;3.20;;;18.90;34.50;;;;;;4998832;28;20816;-66
2022/03/13 12:48:59;;;;;;;2.97;2.53;;;18.90;34.60;;;;;;4997852;28;20417;-66
2022/03/13 12:51:47;;;;;;;3.03;2.83;;;18.90;34.60;;;;;;5001767;28;20500;-66
2022/03/13 12:54:25;;;;;;;3.17;2.93;;;18.90;34.60;;;;;;5003127;28;20439;-66
2022/03/13 12:56:52;;;;;;;3.10;2.90;;;18.90;34.70;;;;;;5000417;28;20431;-65
2022/03/13 12:59:27;;;;;;;3.23;3.03;;;18.90;34.70;;;;;;5001937;28;20492;-65
2022/03/13 13:02:23;;;;;;;2.80;2.60;;;18.90;34.70;;;;;;5004871;28;20440;-66
2022/03/13 13:05:00;;;;;;;2.80;2.60;;;18.90;34.80;;;;;;5000665;28;20537;-66
2022/03/13 13:07:44;;;;;;;2.70;2.50;;;18.80;34.70;;;;;;5000890;28;20428;-65
2022/03/13 13:10:11;;;;;;;2.97;2.77;;;18.80;34.80;;;;;;4997395;28;20428;-65
2022/03/13 13:12:38;;;;;;;3.37;3.17;;;18.80;34.70;;;;;;5001898;28;20947;-65
2022/03/13 13:15:09;;;;;;;3.67;3.37;;;18.80;34.70;;;;;;4998205;28;20460;-65
2022/03/13 13:17:36;;;;;;;4.40;2.80;;;18.80;34.70;;;;;;4998978;28;20446;-66
2022/03/13 13:20:04;;;;;;;3.10;2.90;;;18.90;34.80;;;;;;5004763;28;20442;-68
2022/03/13 13:22:40;;;;;;;3.53;3.33;;;18.80;34.70;;;;;;5004069;28;20944;-70
2022/03/13 13:25:18;;;;;;;3.10;2.90;;;18.80;34.80;;;;;;4998564;28;20430;-67
2022/03/13 13:28:11;;;;;;;3.17;2.97;;;18.80;34.70;;;;;;4999708;28;20500;-67
2022/03/13 13:30:37;;;;;;;3.70;3.50;;;18.80;34.80;;;;;;4994971;28;20446;-67
2022/03/13 13:33:15;;;;;;;3.13;2.83;;;18.80;34.80;;;;;;5002221;28;20488;-67
2022/03/13 13:36:06;;;;;;;3.20;2.93;;;18.80;34.80;;;;;;5002147;28;20488;-67
2022/03/13 13:38:32;;;;;;;3.43;3.23;;;18.80;34.80;;;;;;4976626;28;20460;-65
2022/03/13 13:40:59;;;;;;;3.67;3.37;;;18.80;34.90;;;;;;4981907;28;21022;-67
2022/03/13 13:43:33;;;;;;;3.80;3.60;;;18.80;34.90;;;;;;4981591;28;20871;-68
2022/03/13 13:46:16;;;;;;;2.73;2.53;;;18.80;34.80;;;;;;4979913;28;20881;-66
2022/03/13 13:48:46;;;;;;;2.93;2.73;;;18.80;34.80;;;;;;4979123;28;20985;-66
2022/03/13 13:51:21;;;;;;;5.50;3.30;;;18.80;34.80;;;;;;4980709;28;20831;-68
2022/03/13 13:53:55;;;;;;;3.70;3.10;;;18.80;34.80;;;;;;4980867;28;20461;-67
2022/03/13 13:56:47;;;;;;;3.57;3.30;;;18.80;34.80;;;;;;4978381;28;20858;-67
2022/03/13 13:59:17;;;;;;;3.60;3.40;;;18.90;34.90;;;;;;4980681;28;20581;-67
2022/03/13 14:01:44;;;;;;;3.20;3.00;;;18.90;34.90;;;;;;4990505;28;21259;-70
2022/03/13 14:04:11;;;;;;;3.33;3.07;;;18.90;34.80;;;;;;4980175;28;20547;-68
2022/03/13 14:06:38;;;;;;;3.27;3.07;;;18.90;34.80;;;;;;4978782;28;20527;-67
2022/03/13 14:09:05;;;;;;;3.23;2.97;;;18.90;34.80;;;;;;4978504;28;20818;-67
2022/03/13 14:11:32;;;;;;;3.57;3.37;;;18.90;34.80;;;;;;4982101;28;20985;-68
2022/03/13 14:14:00;;;;;;;3.50;3.20;;;18.90;34.80;;;;;;4978521;28;20439;-66
2022/03/13 14:16:25;;;;;;;3.37;3.10;;;18.90;34.80;;;;;;4981894;28;20809;-65